createdAt,value
2018-03-25T00:06:30.556Z,69.21
2018-03-25T00:07:10.927Z,69.3
2018-03-25T00:07:51.327Z,69.3
2018-03-25T00:08:31.761Z,69.21
2018-03-25T00:09:12.258Z,69.11
2018-03-25T00:09:52.585Z,69.11
2018-03-25T00:10:32.943Z,69.02
2018-03-25T00:11:13.408Z,69.11
2018-03-25T00:11:53.774Z,69.02
2018-03-25T00:12:34.178Z,69.49
2018-03-25T00:13:14.633Z,69.11
2018-03-25T00:13:54.987Z,69.96
2018-03-25T00:14:35.414Z,69.96
2018-03-25T00:15:15.820Z,70.15
2018-03-25T00:15:56.229Z,70.15
2018-03-25T00:16:36.602Z,70.82
2018-03-25T00:17:17.023Z,70.92
2018-03-25T00:17:57.458Z,70.82
2018-03-25T00:18:37.873Z,70.73
2018-03-25T00:19:18.278Z,70.73
2018-03-25T00:19:58.712Z,70.35
2018-03-25T00:20:39.148Z,71.39
2018-03-25T00:21:19.527Z,71.48
2018-03-25T00:21:59.972Z,71.2
2018-03-25T00:22:40.373Z,71.3
2018-03-25T00:23:20.760Z,71.2
2018-03-25T00:24:01.171Z,71.26
2018-03-25T00:24:41.626Z,72.11
2018-03-25T00:25:22.001Z,72.06
2018-03-25T00:26:02.376Z,71.92
2018-03-25T00:26:42.827Z,71.86
2018-03-25T00:27:23.225Z,72.02
2018-03-25T00:28:03.609Z,72.02
2018-03-25T00:28:44.030Z,71.92
2018-03-25T00:29:24.448Z,72.02
2018-03-25T00:30:04.853Z,72.06
2018-03-25T00:30:45.279Z,71.73
2018-03-25T00:31:25.737Z,71.92
2018-03-25T00:32:06.102Z,72.4
2018-03-25T00:32:46.509Z,72.49
2018-03-25T00:33:26.933Z,72.4
2018-03-25T00:34:07.310Z,72.97
2018-03-25T00:34:47.703Z,73.1
2018-03-25T00:35:28.137Z,73.19
2018-03-25T00:36:08.504Z,72.81
2018-03-25T00:36:48.946Z,72.68
2018-03-25T00:37:29.330Z,72.34
2018-03-25T00:38:09.760Z,73
2018-03-25T00:38:50.143Z,72.81
2018-03-25T00:39:30.501Z,72.97
2018-03-25T00:40:10.910Z,72.88
2018-03-25T00:40:51.295Z,72.25
2018-03-25T00:41:31.782Z,72.4
2018-03-25T00:42:12.123Z,72.4
2018-03-25T00:42:52.599Z,72.78
2018-03-25T00:43:32.951Z,72.78
2018-03-25T00:44:13.342Z,72.68
2018-03-25T00:44:53.795Z,72.3
2018-03-25T00:45:34.150Z,72.88
2018-03-25T00:47:39.238Z,73.07
2018-03-25T00:48:26.809Z,74.11
2018-03-25T00:51:59.932Z,73.25
2018-03-25T00:52:52.622Z,73.29
2018-03-25T00:53:40.050Z,73.16
2018-03-25T00:54:33.212Z,73.1
2018-03-25T00:57:11.641Z,71.96
2018-03-25T00:59:20.842Z,71.96
2018-03-25T01:00:10.571Z,72.25
2018-03-25T01:01:50.024Z,71.48
2018-03-25T01:02:38.953Z,71.39
2018-03-25T01:03:29.884Z,71.96
2018-03-25T01:05:26.253Z,72.06
2018-03-25T01:06:16.152Z,72.25
2018-03-25T01:07:08.698Z,71.58
2018-03-25T01:08:02.436Z,71.77
2018-03-25T01:13:02.702Z,71.86
2018-03-25T01:17:02.280Z,71.11
2018-03-25T01:20:20.628Z,70.73
2018-03-25T01:22:02.848Z,70.25
2018-03-25T01:26:10.712Z,71.2
2018-03-25T01:29:32.448Z,71.04
2018-03-25T01:30:30.958Z,70.76
2018-03-25T01:31:21.923Z,70.57
2018-03-25T01:33:01.045Z,68.96
2018-03-25T01:34:41.832Z,68.96
2018-03-25T01:35:28.506Z,69.81
2018-03-25T01:36:08.772Z,68.96
2018-03-25T01:36:49.173Z,68.96
2018-03-25T01:37:29.586Z,68.86
2018-03-25T01:38:09.982Z,69.05
2018-03-25T01:40:03.827Z,70.57
2018-03-25T01:40:52.461Z,70.86
2018-03-25T01:41:45.341Z,70.1
2018-03-25T01:42:26.943Z,70.1
2018-03-25T01:43:18.435Z,69.24
2018-03-25T01:44:06.996Z,68.67
2018-03-25T01:44:45.897Z,69.34
2018-03-25T01:50:51.471Z,69.59
2018-03-25T01:54:30.655Z,70.06
2018-03-25T01:57:18.035Z,70.15
2018-03-25T01:58:08.475Z,70.73
2018-03-25T01:58:56.154Z,70.54
2018-03-25T01:59:46.067Z,71.3
2018-03-25T02:00:33.601Z,71.39
2018-03-25T02:01:24.016Z,70.54
2018-03-25T02:02:11.319Z,70.35
2018-03-25T02:02:51.745Z,70.59
2018-03-25T02:03:32.051Z,70.82
2018-03-25T02:04:12.500Z,70.78
2018-03-25T02:04:52.847Z,70.73
2018-03-25T02:05:33.240Z,71.45
2018-03-25T02:06:13.634Z,71.17
2018-03-25T02:06:54.042Z,71.55
2018-03-25T02:07:34.437Z,72.59
2018-03-25T02:08:14.888Z,72.97
2018-03-25T02:08:55.280Z,72.3
2018-03-25T02:09:35.674Z,72.59
2018-03-25T02:10:16.097Z,72.21
2018-03-25T02:10:56.519Z,72.4
2018-03-25T02:11:36.879Z,72.02
2018-03-25T02:12:17.281Z,71.55
2018-03-25T02:12:57.723Z,72.21
2018-03-25T02:13:38.070Z,72.68
2018-03-25T02:14:18.509Z,72.97
2018-03-25T02:14:58.984Z,72.3
2018-03-25T02:15:39.294Z,72.3
2018-03-25T02:16:19.745Z,72.11
2018-03-25T02:18:38.536Z,72.68
2018-03-25T02:24:19.451Z,73.63
2018-03-25T02:25:04.998Z,73.44
2018-03-25T02:27:04.068Z,73.54
2018-03-25T02:27:52.585Z,73.44
2018-03-25T02:30:19.440Z,73.12
2018-03-25T02:31:13.776Z,73.5
2018-03-25T02:31:59.964Z,74.16
2018-03-25T02:34:31.383Z,76.06
2018-03-25T02:37:25.693Z,75.78
2018-03-25T02:39:51.335Z,74.11
2018-03-25T02:48:32.305Z,75.68
2018-03-25T02:49:23.627Z,75.21
2018-03-25T02:50:12.844Z,75.21
2018-03-25T02:51:03.773Z,75.78
2018-03-25T02:51:53.865Z,76.06
2018-03-25T02:52:41.665Z,76.92
2018-03-25T02:53:30.325Z,76.63
2018-03-25T02:54:14.449Z,76.82
2018-03-25T02:54:54.875Z,76.63
2018-03-25T02:55:35.295Z,75.78
2018-03-25T02:56:15.701Z,75.68
2018-03-25T02:56:56.165Z,75.4
2018-03-25T02:57:36.503Z,75.02
2018-03-25T02:58:16.915Z,75.31
2018-03-25T02:58:57.292Z,75.11
2018-03-25T02:59:37.652Z,74.83
2018-03-25T03:00:18.099Z,75.11
2018-03-25T03:00:58.460Z,74.73
2018-03-25T03:01:38.862Z,74.45
2018-03-25T03:02:19.239Z,75.02
2018-03-25T03:02:59.685Z,75.21
2018-03-25T03:03:40.055Z,74.83
2018-03-25T03:04:20.406Z,74.83
2018-03-25T03:05:00.852Z,75.21
2018-03-25T03:07:19.498Z,74.92
2018-03-25T03:08:08.979Z,75.11
2018-03-25T03:08:57.818Z,75.68
2018-03-25T03:09:44.356Z,75.68
2018-03-25T03:12:09.758Z,76.92
2018-03-25T03:12:58.636Z,77.01
2018-03-25T03:13:50.854Z,76.63
2018-03-25T03:15:32.752Z,76.82
2018-03-25T03:16:20.213Z,76.06
2018-03-25T03:17:11.023Z,76.82
2018-03-25T03:17:58.804Z,76.39
2018-03-25T03:18:54.622Z,75.05
2018-03-25T03:19:28.424Z,74.58
2018-03-25T03:20:08.832Z,74.01
2018-03-25T03:20:49.228Z,73.16
2018-03-25T03:21:29.645Z,72.68
2018-03-25T03:22:10.043Z,72.97
2018-03-25T03:22:50.406Z,73.07
2018-03-25T03:23:30.776Z,72.88
2018-03-25T03:24:11.177Z,72.4
2018-03-25T03:24:51.599Z,72.88
2018-03-25T03:25:31.954Z,73.25
2018-03-25T03:26:12.357Z,73.16
2018-03-25T03:26:52.745Z,73.16
2018-03-25T03:27:33.162Z,72.68
2018-03-25T03:28:13.575Z,73.72
2018-03-25T03:28:53.905Z,73.35
2018-03-25T03:29:34.421Z,73.35
2018-03-25T03:30:14.773Z,73.35
2018-03-25T03:30:55.261Z,73.35
2018-03-25T03:31:35.576Z,73.07
2018-03-25T03:32:15.951Z,73.25
2018-03-25T03:32:56.403Z,73.07
2018-03-25T03:33:36.742Z,72.97
2018-03-25T03:34:17.093Z,73.35
2018-03-25T03:34:57.511Z,72.49
2018-03-25T03:35:37.931Z,72.88
2018-03-25T03:36:18.283Z,72.68
2018-03-25T03:51:25.403Z,75.11
2018-03-25T03:53:05.485Z,77.11
2018-03-25T03:53:54.076Z,76.25
2018-03-25T03:55:57.875Z,74.77
2018-03-25T03:56:48.754Z,73.97
2018-03-25T03:57:38.089Z,74.26
2018-03-25T03:58:25.349Z,74.45
2018-03-25T03:59:04.568Z,74.45
2018-03-25T03:59:44.936Z,74.64
2018-03-25T04:00:25.339Z,74.54
2018-03-25T04:02:44.323Z,75.02
2018-03-25T04:03:31.308Z,75.78
2018-03-25T04:04:17.521Z,76.25
2018-03-25T04:04:58.839Z,76.54
2018-03-25T04:05:39.255Z,76.59
2018-03-25T04:06:19.620Z,77.35
2018-03-25T04:55:11.970Z,81.71
2018-03-25T05:05:46.454Z,82.81
2018-03-25T05:07:51.913Z,83.09
2018-03-25T05:09:31.156Z,82.56
2018-03-25T05:10:20.586Z,81.9
2018-03-25T05:11:11.571Z,82.28
2018-03-25T05:11:56.691Z,81.81
2018-03-25T05:12:40.122Z,81.62
2018-03-25T05:13:20.450Z,81.14
2018-03-25T05:14:00.866Z,80.48
2018-03-25T05:14:41.247Z,80.67
2018-03-25T05:15:21.676Z,80.57
2018-03-25T05:16:02.132Z,80.76
2018-03-25T05:16:42.549Z,80.48
2018-03-25T05:17:22.935Z,80.29
2018-03-25T05:19:24.502Z,80.19
2018-03-25T05:21:05.937Z,79.44
2018-03-25T05:21:54.780Z,79.91
2018-03-25T05:22:44.335Z,80.57
2018-03-25T05:25:31.599Z,79.95
2018-03-25T05:27:14.097Z,78.62
2018-03-25T05:28:49.158Z,77.48
2018-03-25T05:29:40.089Z,77.39
2018-03-25T05:30:29.931Z,77.77
2018-03-25T05:31:22.271Z,77.01
2018-03-25T05:32:11.275Z,77.29
2018-03-25T05:32:59.398Z,77.29
2018-03-25T05:33:39.408Z,77.77
2018-03-25T05:34:19.820Z,78.15
2018-03-25T05:35:00.284Z,78.24
2018-03-25T05:35:40.631Z,78.24
2018-03-25T05:36:21.101Z,78.24
2018-03-25T05:37:01.510Z,78.24
2018-03-25T05:37:41.868Z,77.86
2018-03-25T05:38:22.325Z,77.77
2018-03-25T05:39:02.649Z,76.82
2018-03-25T05:39:43.070Z,77.01
2018-03-25T05:40:23.478Z,76.92
2018-03-25T05:41:03.859Z,76.73
2018-03-25T05:41:44.271Z,76.92
2018-03-25T05:42:24.653Z,76.06
2018-03-25T05:43:05.034Z,75.87
2018-03-25T05:43:45.420Z,75.78
2018-03-25T05:44:25.810Z,76.06
2018-03-25T05:45:06.217Z,75.96
2018-03-25T05:45:46.640Z,76.63
2018-03-25T05:46:26.997Z,77.11
2018-03-25T05:47:07.411Z,76.82
2018-03-25T05:47:47.812Z,77.11
2018-03-25T05:48:28.234Z,76.92
2018-03-25T05:49:08.679Z,76.82
2018-03-25T05:49:49.076Z,76.34
2018-03-25T05:50:29.511Z,76.06
2018-03-25T05:51:09.894Z,75.49
2018-03-25T05:51:50.314Z,75.68
2018-03-25T05:52:30.724Z,76.54
2018-03-25T05:53:11.122Z,76.63
2018-03-25T05:53:51.498Z,76.15
2018-03-25T05:54:31.964Z,76.15
2018-03-25T05:55:12.328Z,75.11
2018-03-25T05:55:52.722Z,75.02
2018-03-25T05:56:33.117Z,75.21
2018-03-25T05:58:25.453Z,74.83
2018-03-25T05:59:14.534Z,75.21
2018-03-25T06:02:05.835Z,74.07
2018-03-25T06:02:54.391Z,74.16
2018-03-25T06:03:40.379Z,73.41
2018-03-25T06:04:19.981Z,73.72
2018-03-25T06:05:00.386Z,73.25
2018-03-25T06:05:40.842Z,73.35
2018-03-25T06:07:39.598Z,72.21
2018-03-25T06:10:19.541Z,71.92
2018-03-25T06:11:11.515Z,71.07
2018-03-25T06:11:59.906Z,71.26
2018-03-25T06:12:49.036Z,71.07
2018-03-25T06:13:35.012Z,70.88
2018-03-25T06:14:25.590Z,70.78
2018-03-25T06:15:17.797Z,71.26
2018-03-25T06:16:08.122Z,71.45
2018-03-25T06:16:56.952Z,71.17
2018-03-25T06:17:36.058Z,71.07
2018-03-25T06:22:29.424Z,70.73
2018-03-25T06:23:18.536Z,69.4
2018-03-25T06:24:07.972Z,69.02
2018-03-25T06:24:59.058Z,69.05
2018-03-25T06:25:47.934Z,67.82
2018-03-25T06:26:38.529Z,67.44
2018-03-25T06:28:42.848Z,65.67
2018-03-25T06:29:32.647Z,64.62
2018-03-25T06:30:23.291Z,64.14
2018-03-25T06:31:10.159Z,64.18
2018-03-25T06:32:00.335Z,63.13
2018-03-25T06:34:27.889Z,60.94
2018-03-25T06:35:16.758Z,61.13
2018-03-25T06:36:07.268Z,60.57
2018-03-25T06:39:05.388Z,59.55
2018-03-25T06:41:00.669Z,59.64
2018-03-25T06:41:52.703Z,59.17
2018-03-25T06:42:42.510Z,58.59
2018-03-25T06:43:32.575Z,58.25
2018-03-25T06:44:20.768Z,57.87
2018-03-25T06:45:10.664Z,57.2
2018-03-25T06:46:00.035Z,56.72
2018-03-25T06:47:37.532Z,56.37
2018-03-25T06:49:23.097Z,55.22
2018-03-25T06:50:02.214Z,54.66
2018-03-25T06:50:42.641Z,54.47
2018-03-25T06:51:23.026Z,54.39
2018-03-25T06:52:03.444Z,54.21
2018-03-25T06:56:54.120Z,52.78
2018-03-25T06:59:24.653Z,53.06
2018-03-25T07:00:10.796Z,52.87
2018-03-25T07:01:00.282Z,53.25
2018-03-25T07:01:53.703Z,52.68
2018-03-25T07:06:28.719Z,52.8
2018-03-25T07:08:34.873Z,52.04
2018-03-25T07:16:38.242Z,53.25
2018-03-25T07:19:02.749Z,52.87
2018-03-25T07:19:51.736Z,53.16
2018-03-25T07:27:13.512Z,51.76
2018-03-25T07:30:08.083Z,50.07
2018-03-25T07:30:58.174Z,49.87
2018-03-25T07:33:27.078Z,48.63
2018-03-25T07:35:52.247Z,48.66
2018-03-25T07:39:30.700Z,47.89
2018-03-25T07:40:21.679Z,47.44
2018-03-25T07:42:43.828Z,46.3
2018-03-25T07:44:38.793Z,46.42
2018-03-25T07:48:55.748Z,46.87
2018-03-25T07:49:43.053Z,46.97
2018-03-25T07:50:23.468Z,47.13
2018-03-25T07:51:03.917Z,47.23
2018-03-25T07:51:44.269Z,47.54
2018-03-25T07:52:24.737Z,47.16
2018-03-25T07:53:05.093Z,46.87
2018-03-25T07:53:45.488Z,46.97
2018-03-25T07:54:25.912Z,46.68
2018-03-25T07:55:06.329Z,46.48
2018-03-25T07:55:46.802Z,46.51
2018-03-25T07:56:27.271Z,46.22
2018-03-25T07:57:07.621Z,46.32
2018-03-25T07:57:50.191Z,45.56
2018-03-25T07:58:30.576Z,45.56
2018-03-25T07:59:11.281Z,45.08
2018-03-25T07:59:51.479Z,44.51
2018-03-25T08:00:31.873Z,45.08
2018-03-25T08:01:12.261Z,45.27
2018-03-25T08:01:52.652Z,45.37
2018-03-25T08:02:33.116Z,45.46
2018-03-25T08:03:13.453Z,45.27
2018-03-25T08:07:12.549Z,45.2
2018-03-25T08:08:02.685Z,44.91
2018-03-25T08:12:30.112Z,43.79
2018-03-25T08:14:29.432Z,43.86
2018-03-25T08:18:17.189Z,43.02
2018-03-25T08:19:05.153Z,42.66
2018-03-25T08:21:33.976Z,41.63
2018-03-25T08:22:20.500Z,41.34
2018-03-25T08:23:59.328Z,40.59
2018-03-25T08:27:05.037Z,39.08
2018-03-25T08:29:27.668Z,38.51
2018-03-25T08:30:08.062Z,38.34
2018-03-25T08:30:48.481Z,38.72
2018-03-25T08:31:28.874Z,38.34
2018-03-25T08:32:09.235Z,38.24
2018-03-25T08:32:49.634Z,38.41
2018-03-25T08:33:30.423Z,38.41
2018-03-25T08:34:11.055Z,38.89
2018-03-25T08:34:51.526Z,39.16
2018-03-25T08:35:31.894Z,39.92
2018-03-25T08:36:12.280Z,40.88
2018-03-25T08:38:14.314Z,40.61
2018-03-25T08:39:04.784Z,39.85
2018-03-25T08:39:50.881Z,39.47
2018-03-25T08:40:39.422Z,39.1
2018-03-25T08:41:18.379Z,38.81
2018-03-25T08:41:58.766Z,38.43
2018-03-25T08:42:39.158Z,38.05
2018-03-25T08:43:19.601Z,38.14
2018-03-25T08:47:31.778Z,35.88
2018-03-25T08:49:14.589Z,36.26
2018-03-25T08:49:57.078Z,35.99
2018-03-25T08:50:39.531Z,35.32
2018-03-25T08:51:19.887Z,34.84
2018-03-25T08:52:00.289Z,35.13
2018-03-25T08:52:40.743Z,34.84
2018-03-25T08:53:21.111Z,35.05
2018-03-25T08:54:01.523Z,34.84
2018-03-25T08:54:41.956Z,34.67
2018-03-25T08:55:22.324Z,34.36
2018-03-25T08:56:02.743Z,34.55
2018-03-25T08:56:43.165Z,34.55
2018-03-25T08:57:23.570Z,34.57
2018-03-25T08:58:03.979Z,34.84
2018-03-25T08:58:44.410Z,34.94
2018-03-25T08:59:24.875Z,34.94
2018-03-25T09:00:05.254Z,34.57
2018-03-25T09:00:45.758Z,34.47
2018-03-25T09:01:26.147Z,34.07
2018-03-25T09:02:06.576Z,34.27
2018-03-25T09:02:46.958Z,35.03
2018-03-25T09:03:27.440Z,35.22
2018-03-25T09:04:07.779Z,35.22
2018-03-25T09:04:48.216Z,35.61
2018-03-25T09:05:28.584Z,35.42
2018-03-25T09:06:09.133Z,34.94
2018-03-25T09:06:49.703Z,34.84
2018-03-25T09:07:30.739Z,34.25
2018-03-25T09:08:11.116Z,35.11
2018-03-25T09:08:51.529Z,35.59
2018-03-25T09:09:31.959Z,36.07
2018-03-25T09:10:12.332Z,35.78
2018-03-25T09:10:52.768Z,35.4
2018-03-25T09:11:33.197Z,35.59
2018-03-25T09:12:13.565Z,35.88
2018-03-25T09:12:53.962Z,35.97
2018-03-25T09:13:34.372Z,36.65
2018-03-25T09:14:14.837Z,36.74
2018-03-25T09:14:55.222Z,37.03
2018-03-25T09:15:35.630Z,37.32
2018-03-25T09:16:16.040Z,37.6
2018-03-25T09:16:56.453Z,37.22
2018-03-25T09:17:36.869Z,37.13
2018-03-25T09:18:17.289Z,37.03
2018-03-25T09:18:57.679Z,36.57
2018-03-25T09:19:38.026Z,35.61
2018-03-25T09:21:31.614Z,35.55
2018-03-25T09:27:26.109Z,33.64
2018-03-25T09:29:06.241Z,32.03
2018-03-25T09:29:54.668Z,31.83
2018-03-25T09:30:44.760Z,31.95
2018-03-25T09:31:31.644Z,31.27
2018-03-25T09:32:11.512Z,31.38
2018-03-25T09:32:51.919Z,31.19
2018-03-25T09:33:32.374Z,30.52
2018-03-25T09:34:12.742Z,30.13
2018-03-25T09:34:53.214Z,29.94
2018-03-25T09:35:33.559Z,30.21
2018-03-25T09:36:13.962Z,30.69
2018-03-25T09:36:54.400Z,30.88
2018-03-25T09:37:34.827Z,30.79
2018-03-25T09:38:15.222Z,30.6
2018-03-25T09:38:55.643Z,30.79
2018-03-25T09:39:36.086Z,30.21
2018-03-25T09:40:16.498Z,30.04
2018-03-25T09:40:56.905Z,29.65
2018-03-25T09:41:37.304Z,29.84
2018-03-25T09:42:17.707Z,30.42
2018-03-25T09:42:58.117Z,30.5
2018-03-25T09:43:38.490Z,30.6
2018-03-25T09:44:18.896Z,30.11
2018-03-25T09:44:59.292Z,30.6
2018-03-25T09:45:39.753Z,30.58
2018-03-25T09:46:20.145Z,30.85
2018-03-25T09:47:00.573Z,31.61
2018-03-25T09:54:02.623Z,32.49
2018-03-25T09:54:53.516Z,32.79
2018-03-25T09:56:41.357Z,32.79
2018-03-25T09:57:30.476Z,32.04
2018-03-25T09:58:19.073Z,31.57
2018-03-25T10:00:39.197Z,29.39
2018-03-25T10:02:21.847Z,28.81
2018-03-25T10:04:44.105Z,27.49
2018-03-25T10:05:32.853Z,26.33
2018-03-25T10:06:14.985Z,26.14
2018-03-25T10:06:54.819Z,25.26
2018-03-25T10:07:35.255Z,25.18
2018-03-25T10:08:15.624Z,25.35
2018-03-25T10:46:11.385Z,23.36
2018-03-25T10:48:08.927Z,22.99
2018-03-25T10:48:57.589Z,22.89
2018-03-25T10:49:43.769Z,22.91
2018-03-25T10:50:25.356Z,22.05
2018-03-25T10:51:05.783Z,21.17
2018-03-25T10:51:46.186Z,21.38
2018-03-25T10:52:26.614Z,21.38
2018-03-25T10:53:06.998Z,20.9
2018-03-25T10:53:47.416Z,20.81
2018-03-25T10:54:27.830Z,20.72
2018-03-25T10:55:08.240Z,19.86
2018-03-25T10:55:48.681Z,18.99
2018-03-25T10:56:29.133Z,19.27
2018-03-25T10:57:09.536Z,19.57
2018-03-25T10:57:49.909Z,19.38
2018-03-25T10:58:30.341Z,19.57
2018-03-25T10:59:10.731Z,18.8
2018-03-25T10:59:51.135Z,18.22
2018-03-25T11:00:31.560Z,17.94
2018-03-25T11:01:11.994Z,18.13
2018-03-25T11:01:52.383Z,18.13
2018-03-25T11:02:32.826Z,18.13
2018-03-25T11:03:13.175Z,17.83
2018-03-25T11:03:53.576Z,17.64
2018-03-25T11:04:34.027Z,17.83
2018-03-25T11:05:14.414Z,18.04
2018-03-25T11:05:54.801Z,17.74
2018-03-25T11:06:35.231Z,17.25
2018-03-25T11:07:15.643Z,18.03
2018-03-25T11:07:56.052Z,18.22
2018-03-25T11:08:36.431Z,18.03
2018-03-25T11:09:16.887Z,17.74
2018-03-25T11:09:57.345Z,17.25
2018-03-25T11:10:37.726Z,17.16
2018-03-25T11:11:18.109Z,17.06
2018-03-25T11:11:59.117Z,17.64
2018-03-25T11:12:39.554Z,17.63
2018-03-25T11:13:20.078Z,17.24
2018-03-25T11:14:00.429Z,17.16
2018-03-25T11:14:40.875Z,17.06
2018-03-25T11:15:21.270Z,16.56
2018-03-25T11:16:01.669Z,16.19
2018-03-25T11:16:42.080Z,16.96
2018-03-25T11:17:23.112Z,17.06
2018-03-25T11:18:03.239Z,17.07
2018-03-25T11:18:44.253Z,16.58
2018-03-25T11:19:25.156Z,16.29
2018-03-25T11:20:05.524Z,15.81
2018-03-25T11:20:45.941Z,15.91
2018-03-25T11:21:26.367Z,16.29
2018-03-25T11:22:06.748Z,16.68
2018-03-25T11:22:47.174Z,15.89
2018-03-25T11:23:27.559Z,15.8
2018-03-25T11:24:08.005Z,16.28
2018-03-25T11:24:48.866Z,17.52
2018-03-25T11:25:28.828Z,17.82
2018-03-25T11:26:09.219Z,17.81
2018-03-25T11:26:49.601Z,17.99
2018-03-25T11:27:29.997Z,18.85
2018-03-25T11:28:10.533Z,19.63
2018-03-25T11:28:50.942Z,19.43
2018-03-25T11:29:31.357Z,18.65
2018-03-25T11:30:11.779Z,18.84
2018-03-25T11:30:52.317Z,19.12
2018-03-25T11:31:32.726Z,19.31
2018-03-25T11:32:13.118Z,20.26
2018-03-25T11:32:53.627Z,21.62
2018-03-25T11:33:34.133Z,21.99
2018-03-25T11:34:16.068Z,21.89
2018-03-25T11:34:56.498Z,21.99
2018-03-25T11:35:37.985Z,21.7
2018-03-25T11:36:18.856Z,22.46
2018-03-25T11:36:59.279Z,21.8
2018-03-25T11:37:39.713Z,21.7
2018-03-25T11:38:20.103Z,21.21
2018-03-25T11:39:00.524Z,21.39
2018-03-25T11:39:40.918Z,21.96
2018-03-25T11:40:21.309Z,23.68
2018-03-25T11:41:01.708Z,23.86
2018-03-25T11:41:42.124Z,24.04
2018-03-25T11:42:22.538Z,24.62
2018-03-25T11:43:02.920Z,25.38
2018-03-25T11:43:43.405Z,25.46
2018-03-25T11:44:23.786Z,25.56
2018-03-25T11:45:04.177Z,26.31
2018-03-25T11:45:44.592Z,26.23
2018-03-25T11:46:24.985Z,26.9
2018-03-25T11:47:05.408Z,26.61
2018-03-25T11:47:45.849Z,26.32
2018-03-25T11:50:02.659Z,25.95
2018-03-25T11:50:51.107Z,25.95
2018-03-25T11:51:39.447Z,27.01
2018-03-25T11:52:30.818Z,27.12
2018-03-25T11:53:19.698Z,25.88
2018-03-25T11:54:08.031Z,25.31
2018-03-25T11:54:56.303Z,24.74
2018-03-25T11:55:43.021Z,24.57
2018-03-25T11:56:30.572Z,23.41
2018-03-25T11:57:10.646Z,23.14
2018-03-25T11:57:51.055Z,22.57
2018-03-25T11:58:31.478Z,21.52
2018-03-25T11:59:11.962Z,21.33
2018-03-25T11:59:52.527Z,20.95
2018-03-25T12:00:32.865Z,20.56
2018-03-25T12:01:13.273Z,20.18
2018-03-25T12:01:53.687Z,19.9
2018-03-25T12:02:34.066Z,19.71
2018-03-25T12:03:14.537Z,19.81
2018-03-25T12:03:54.931Z,17.98
2018-03-25T12:04:35.320Z,17.89
2018-03-25T12:06:26.560Z,18.55
2018-03-25T12:07:15.074Z,19.04
2018-03-25T12:08:03.258Z,18.95
2018-03-25T12:08:49.794Z,19.05
2018-03-25T12:09:34.443Z,18.95
2018-03-25T12:10:14.868Z,17.4
2018-03-25T12:10:55.240Z,17.98
2018-03-25T12:11:35.638Z,17.21
2018-03-25T12:12:16.040Z,17.89
2018-03-25T12:12:56.458Z,17.6
2018-03-25T12:13:36.890Z,17.22
2018-03-25T12:14:17.288Z,16.83
2018-03-25T12:14:57.741Z,16.72
2018-03-25T12:15:38.124Z,16.72
2018-03-25T12:16:18.642Z,16.82
2018-03-25T12:16:58.998Z,17.47
2018-03-25T12:17:39.403Z,18.13
2018-03-25T12:18:20.413Z,19.85
2018-03-25T12:19:00.778Z,20.51
2018-03-25T12:19:41.174Z,21.48
2018-03-25T12:20:21.601Z,21.95
2018-03-25T12:21:02.067Z,22.33
2018-03-25T12:21:42.448Z,22.44
2018-03-25T12:22:23.238Z,21.86
2018-03-25T12:23:03.932Z,21.66
2018-03-25T12:23:44.285Z,21.77
2018-03-25T12:24:24.669Z,21.48
2018-03-25T12:25:05.094Z,21.58
2018-03-25T12:25:45.524Z,21.58
2018-03-25T12:26:25.926Z,21.2
2018-03-25T12:27:06.357Z,20.91
2018-03-25T12:27:46.811Z,20.73
2018-03-25T12:28:27.183Z,20.63
2018-03-25T12:29:07.582Z,21.22
2018-03-25T12:29:48.207Z,21.13
2018-03-25T12:30:28.653Z,20.75
2018-03-25T12:31:09.062Z,19.98
2018-03-25T12:31:49.490Z,19.79
2018-03-25T12:32:29.878Z,18.82
2018-03-25T12:33:10.349Z,19
2018-03-25T12:33:50.739Z,19.87
2018-03-25T12:34:31.124Z,20.06
2018-03-25T12:35:11.584Z,19.95
2018-03-25T12:35:52.056Z,20.8
2018-03-25T12:36:32.380Z,21.75
2018-03-25T12:37:12.821Z,22.71
2018-03-25T12:37:53.205Z,23.66
2018-03-25T12:38:33.604Z,23.86
2018-03-25T12:39:14.014Z,23.86
2018-03-25T12:39:54.450Z,23.86
2018-03-25T12:40:34.855Z,24.15
2018-03-25T12:41:15.213Z,23.87
2018-03-25T12:41:55.635Z,23.88
2018-03-25T12:42:36.048Z,23.51
2018-03-25T12:43:16.449Z,21.88
2018-03-25T12:43:56.905Z,20.81
2018-03-25T12:46:13.327Z,20.81
2018-03-25T12:47:01.925Z,21.77
2018-03-25T12:47:50.273Z,22.92
2018-03-25T12:48:38.727Z,22.83
2018-03-25T12:49:27.560Z,21.68
2018-03-25T12:50:15.996Z,20.81
2018-03-25T12:51:04.203Z,20.43
2018-03-25T12:53:31.464Z,21.3
2018-03-25T12:54:19.492Z,20.81
2018-03-25T12:56:09.753Z,21.48
2018-03-25T12:56:58.174Z,21.98
2018-03-25T12:57:46.721Z,21.5
2018-03-25T12:58:35.012Z,21.4
2018-03-25T12:59:23.640Z,20.64
2018-03-25T13:00:12.137Z,20.26
2018-03-25T13:01:00.336Z,19.88
2018-03-25T13:01:48.769Z,19.01
2018-03-25T13:02:37.457Z,18.63
2018-03-25T13:03:25.929Z,18.73
2018-03-25T13:04:14.467Z,19.98
2018-03-25T13:05:01.886Z,19.31
2018-03-25T13:05:50.391Z,18.92
2018-03-25T13:06:39.021Z,19.6
2018-03-25T13:07:27.909Z,19.78
2018-03-25T13:08:16.143Z,19.96
2018-03-25T13:09:04.875Z,20.73
2018-03-25T13:09:50.115Z,21.31
2018-03-25T13:10:38.928Z,21.5
2018-03-25T13:11:32.690Z,21.99
2018-03-25T13:12:19.332Z,22.09
2018-03-25T13:13:08.167Z,21.81
2018-03-25T13:13:56.299Z,21.23
2018-03-25T13:14:38.477Z,21.23
2018-03-25T13:15:18.267Z,21.04
2018-03-25T13:15:59.574Z,20.66
2018-03-25T13:16:40.417Z,20.56
2018-03-25T13:17:21.305Z,20.86
2018-03-25T13:18:01.924Z,20.28
2018-03-25T13:18:42.348Z,20.1
2018-03-25T13:19:23.173Z,19.71
2018-03-25T13:20:03.965Z,19.81
2018-03-25T13:20:44.264Z,19.71
2018-03-25T13:21:24.812Z,19.62
2018-03-25T13:22:05.195Z,19.53
2018-03-25T13:22:45.617Z,19.34
2018-03-25T13:23:26.020Z,18.85
2018-03-25T13:24:06.440Z,18.76
2018-03-25T13:26:03.048Z,18.76
2018-03-25T13:26:51.395Z,18.76
2018-03-25T13:27:38.803Z,18.18
2018-03-25T13:28:19.745Z,18.76
2018-03-25T13:29:00.304Z,19.24
2018-03-25T13:29:40.658Z,19.04
2018-03-25T13:30:21.041Z,19.52
2018-03-25T13:31:01.639Z,19.04
2018-03-25T13:31:41.920Z,18.85
2018-03-25T13:32:22.972Z,19.52
2018-03-25T13:33:03.770Z,19.52
2018-03-25T13:33:45.201Z,19.33
2018-03-25T13:34:25.335Z,19.24
2018-03-25T13:35:05.744Z,18.57
2018-03-25T13:35:46.530Z,18.76
2018-03-25T13:36:26.988Z,18.47
2018-03-25T13:37:07.455Z,17.98
2018-03-25T13:37:47.824Z,18.19
2018-03-25T13:38:29.628Z,18.48
2018-03-25T13:39:09.966Z,17.9
2018-03-25T13:39:50.561Z,18.28
2018-03-25T13:40:31.101Z,17.9
2018-03-25T13:41:11.599Z,17.32
2018-03-25T13:41:52.005Z,17.61
2018-03-25T13:42:33.190Z,17.22
2018-03-25T13:43:13.556Z,17.42
2018-03-25T13:43:54.301Z,17.71
2018-03-25T13:44:34.622Z,17.42
2018-03-25T13:45:15.044Z,16.94
2018-03-25T13:45:55.580Z,16.84
2018-03-25T13:46:35.955Z,17.03
2018-03-25T13:47:16.368Z,17.03
2018-03-25T13:47:56.778Z,16.74
2018-03-25T13:48:37.148Z,16.83
2018-03-25T13:49:17.594Z,17.32
2018-03-25T13:49:57.969Z,17.41
2018-03-25T13:50:38.349Z,17.32
2018-03-25T13:51:18.805Z,16.93
2018-03-25T13:51:59.192Z,17.32
2018-03-25T13:52:39.627Z,17.22
2018-03-25T13:53:20.194Z,17.52
2018-03-25T13:54:00.750Z,17.42
2018-03-25T13:54:41.654Z,17.03
2018-03-25T13:55:22.250Z,16.93
2018-03-25T13:56:02.723Z,16.93
2018-03-25T13:56:43.422Z,16.54
2018-03-25T13:57:23.666Z,17.12
2018-03-25T13:58:04.367Z,17.41
2018-03-25T13:58:48.726Z,17.12
2018-03-25T13:59:29.169Z,17.02
2018-03-25T14:00:09.542Z,17.12
2018-03-25T14:00:49.965Z,17.02
2018-03-25T14:01:30.386Z,17.32
2018-03-25T14:02:10.768Z,17.32
2018-03-25T14:02:51.225Z,16.84
2018-03-25T14:03:31.737Z,16.64
2018-03-25T14:04:12.569Z,16.64
2018-03-25T14:04:52.775Z,16.83
2018-03-25T14:05:33.176Z,16.64
2018-03-25T14:06:13.982Z,16.35
2018-03-25T14:06:54.389Z,16.35
2018-03-25T14:07:35.405Z,16.16
2018-03-25T14:08:15.884Z,16.44
2018-03-25T14:08:56.899Z,16.25
2018-03-25T14:09:37.482Z,16.16
2018-03-25T14:10:20.117Z,16.25
2018-03-25T14:11:00.703Z,16.25
2018-03-25T14:11:41.161Z,15.96
2018-03-25T14:12:21.553Z,16.16
2018-03-25T14:13:02.722Z,16.44
2018-03-25T14:13:43.201Z,16.54
2018-03-25T14:14:23.616Z,16.14
2018-03-25T14:15:04.030Z,16.06
2018-03-25T14:15:44.456Z,16.05
2018-03-25T14:16:24.850Z,16.14
2018-03-25T14:17:05.244Z,16.25
2018-03-25T14:17:46.471Z,16.82